sensor_id;sensor_type;location;lat;lon;timestamp;pressure;altitude;pressure_sealevel;temperature;humidity
52957;BME280;38819;42.692;23.342;2023-04-30T00:01:41;94974.00;;;12.67;65.12
52957;BME280;38819;42.692;23.342;2023-04-30T00:04:07;94987.59;;;12.75;65.42
52957;BME280;38819;42.692;23.342;2023-04-30T00:06:32;94988.97;;;12.64;64.96
52957;BME280;38819;42.692;23.342;2023-04-30T00:08:58;94985.00;;;12.62;65.11
52957;BME280;38819;42.692;23.342;2023-04-30T00:11:23;94985.78;;;12.62;65.04
52957;BME280;38819;42.692;23.342;2023-04-30T00:13:50;94990.84;;;12.55;64.77
52957;BME280;38819;42.692;23.342;2023-04-30T00:16:16;94986.63;;;12.71;64.66
52957;BME280;38819;42.692;23.342;2023-04-30T00:18:41;94976.56;;;12.63;65.51
52957;BME280;38819;42.692;23.342;2023-04-30T00:21:07;94983.84;;;12.63;65.72
52957;BME280;38819;42.692;23.342;2023-04-30T00:23:32;94979.41;;;12.58;65.87
52957;BME280;38819;42.692;23.342;2023-04-30T00:25:57;94977.66;;;12.62;65.45
52957;BME280;38819;42.692;23.342;2023-04-30T00:28:23;94981.97;;;12.63;65.42
52957;BME280;38819;42.692;23.342;2023-04-30T00:30:48;94981.59;;;12.56;65.75
52957;BME280;38819;42.692;23.342;2023-04-30T00:33:14;94981.41;;;12.52;65.85
52957;BME280;38819;42.692;23.342;2023-04-30T00:35:39;94983.66;;;12.50;65.87
52957;BME280;38819;42.692;23.342;2023-04-30T00:38:04;94988.94;;;12.33;66.20
52957;BME280;38819;42.692;23.342;2023-04-30T00:40:33;94987.19;;;12.28;66.13
52957;BME280;38819;42.692;23.342;2023-04-30T00:42:59;94985.56;;;12.27;65.87
52957;BME280;38819;42.692;23.342;2023-04-30T00:45:24;94984.59;;;12.23;65.78
52957;BME280;38819;42.692;23.342;2023-04-30T00:47:50;94988.72;;;12.20;65.81
52957;BME280;38819;42.692;23.342;2023-04-30T00:50:15;94978.75;;;12.07;66.29
52957;BME280;38819;42.692;23.342;2023-04-30T00:52:42;94981.22;;;11.95;66.40
52957;BME280;38819;42.692;23.342;2023-04-30T00:55:09;94977.78;;;11.89;65.99
52957;BME280;38819;42.692;23.342;2023-04-30T00:57:35;94977.41;;;11.82;66.13
52957;BME280;38819;42.692;23.342;2023-04-30T01:00:02;94979.50;;;11.85;66.40
52957;BME280;38819;42.692;23.342;2023-04-30T01:02:28;94983.31;;;11.84;66.25
52957;BME280;38819;42.692;23.342;2023-04-30T01:04:55;94978.19;;;11.82;66.17
52957;BME280;38819;42.692;23.342;2023-04-30T01:07:20;94978.19;;;11.82;66.39
52957;BME280;38819;42.692;23.342;2023-04-30T01:09:46;94976.50;;;11.86;66.18
52957;BME280;38819;42.692;23.342;2023-04-30T01:15:03;94984.13;;;11.84;66.31
52957;BME280;38819;42.692;23.342;2023-04-30T01:17:42;94979.94;;;11.78;66.59
52957;BME280;38819;42.692;23.342;2023-04-30T01:20:10;94976.03;;;11.71;66.83
52957;BME280;38819;42.692;23.342;2023-04-30T01:28:08;94974.88;;;11.63;66.95
52957;BME280;38819;42.692;23.342;2023-04-30T01:30:34;94974.75;;;11.68;66.88
52957;BME280;38819;42.692;23.342;2023-04-30T01:33:00;94971.53;;;11.66;66.90
52957;BME280;38819;42.692;23.342;2023-04-30T01:41:22;94976.16;;;11.65;66.79
52957;BME280;38819;42.692;23.342;2023-04-30T01:46:28;94978.56;;;11.67;67.36
52957;BME280;38819;42.692;23.342;2023-04-30T01:51:52;94975.91;;;11.53;67.51
52957;BME280;38819;42.692;23.342;2023-04-30T01:55:04;94978.38;;;11.63;67.17
52957;BME280;38819;42.692;23.342;2023-04-30T01:57:38;94980.78;;;11.65;67.23
52957;BME280;38819;42.692;23.342;2023-04-30T02:00:05;94981.31;;;11.53;67.60
52957;BME280;38819;42.692;23.342;2023-04-30T02:02:33;94975.59;;;11.55;67.33
52957;BME280;38819;42.692;23.342;2023-04-30T02:04:58;94978.38;;;11.63;67.18
52957;BME280;38819;42.692;23.342;2023-04-30T02:07:42;94987.47;;;11.67;66.80
52957;BME280;38819;42.692;23.342;2023-04-30T02:10:09;94985.56;;;11.68;66.93
52957;BME280;38819;42.692;23.342;2023-04-30T02:12:36;94973.75;;;11.64;66.53
52957;BME280;38819;42.692;23.342;2023-04-30T02:15:03;94977.75;;;11.66;66.60
52957;BME280;38819;42.692;23.342;2023-04-30T02:17:28;94984.84;;;11.76;66.40
52957;BME280;38819;42.692;23.342;2023-04-30T02:19:54;94984.56;;;11.78;66.30
52957;BME280;38819;42.692;23.342;2023-04-30T02:22:19;94981.44;;;11.71;66.52
52957;BME280;38819;42.692;23.342;2023-04-30T02:24:45;94979.97;;;11.64;66.95
52957;BME280;38819;42.692;23.342;2023-04-30T02:27:10;94971.88;;;11.50;67.90
52957;BME280;38819;42.692;23.342;2023-04-30T02:29:36;94972.78;;;11.46;67.75
52957;BME280;38819;42.692;23.342;2023-04-30T02:32:01;94981.81;;;11.41;67.98
52957;BME280;38819;42.692;23.342;2023-04-30T02:34:26;94972.91;;;11.41;68.14
52957;BME280;38819;42.692;23.342;2023-04-30T02:36:52;94974.09;;;11.48;67.82
52957;BME280;38819;42.692;23.342;2023-04-30T02:39:17;94972.41;;;11.39;68.36
52957;BME280;38819;42.692;23.342;2023-04-30T02:41:43;94976.13;;;11.29;68.47
52957;BME280;38819;42.692;23.342;2023-04-30T02:44:08;94976.41;;;11.27;68.75
52957;BME280;38819;42.692;23.342;2023-04-30T02:46:33;94979.84;;;11.19;68.98
52957;BME280;38819;42.692;23.342;2023-04-30T02:48:59;94986.03;;;11.34;68.48
52957;BME280;38819;42.692;23.342;2023-04-30T02:51:24;94982.53;;;11.33;68.64
52957;BME280;38819;42.692;23.342;2023-04-30T02:53:50;94986.34;;;11.32;68.54
52957;BME280;38819;42.692;23.342;2023-04-30T02:56:16;94991.16;;;11.35;68.52
52957;BME280;38819;42.692;23.342;2023-04-30T02:58:41;94985.13;;;11.38;68.70
52957;BME280;38819;42.692;23.342;2023-04-30T03:01:06;94989.34;;;11.44;68.39
52957;BME280;38819;42.692;23.342;2023-04-30T03:03:32;94995.34;;;11.41;68.38
52957;BME280;38819;42.692;23.342;2023-04-30T03:05:58;94994.81;;;11.39;68.23
52957;BME280;38819;42.692;23.342;2023-04-30T03:08:24;94987.34;;;11.36;68.16
52957;BME280;38819;42.692;23.342;2023-04-30T03:10:50;94993.06;;;11.35;68.25
52957;BME280;38819;42.692;23.342;2023-04-30T03:13:15;95003.56;;;11.36;68.18
52957;BME280;38819;42.692;23.342;2023-04-30T03:15:40;95001.56;;;11.42;67.91
52957;BME280;38819;42.692;23.342;2023-04-30T03:18:06;95004.75;;;11.44;67.34
52957;BME280;38819;42.692;23.342;2023-04-30T03:20:31;95008.34;;;11.53;66.33
52957;BME280;38819;42.692;23.342;2023-04-30T03:22:57;95008.13;;;11.63;65.87
52957;BME280;38819;42.692;23.342;2023-04-30T03:25:22;95000.44;;;11.57;65.80
52957;BME280;38819;42.692;23.342;2023-04-30T03:27:47;94996.09;;;11.56;65.49
52957;BME280;38819;42.692;23.342;2023-04-30T03:30:13;95000.72;;;11.55;65.33
52957;BME280;38819;42.692;23.342;2023-04-30T03:32:38;94992.31;;;11.57;65.50
52957;BME280;38819;42.692;23.342;2023-04-30T03:35:04;94998.69;;;11.61;65.09
52957;BME280;38819;42.692;23.342;2023-04-30T03:37:30;95003.50;;;11.64;64.61
52957;BME280;38819;42.692;23.342;2023-04-30T03:39:56;95004.00;;;11.66;64.49
52957;BME280;38819;42.692;23.342;2023-04-30T03:42:21;95007.53;;;11.66;64.27
52957;BME280;38819;42.692;23.342;2023-04-30T03:44:46;95013.72;;;11.67;64.21
52957;BME280;38819;42.692;23.342;2023-04-30T03:47:12;95026.66;;;11.70;64.15
52957;BME280;38819;42.692;23.342;2023-04-30T03:49:37;95018.94;;;11.63;64.51
52957;BME280;38819;42.692;23.342;2023-04-30T03:52:03;95026.28;;;11.63;64.06
52957;BME280;38819;42.692;23.342;2023-04-30T03:54:29;95031.69;;;11.63;64.10
52957;BME280;38819;42.692;23.342;2023-04-30T03:56:55;95039.19;;;11.52;64.08
52957;BME280;38819;42.692;23.342;2023-04-30T03:59:21;95033.09;;;11.46;64.13
52957;BME280;38819;42.692;23.342;2023-04-30T04:01:46;95035.78;;;11.32;64.69
52957;BME280;38819;42.692;23.342;2023-04-30T04:04:12;95033.91;;;11.33;64.53
52957;BME280;38819;42.692;23.342;2023-04-30T04:06:38;95035.09;;;11.41;64.57
52957;BME280;38819;42.692;23.342;2023-04-30T04:09:03;95032.00;;;11.34;64.62
52957;BME280;38819;42.692;23.342;2023-04-30T04:11:29;95032.31;;;11.32;64.57
52957;BME280;38819;42.692;23.342;2023-04-30T04:13:54;95037.09;;;11.35;64.61
52957;BME280;38819;42.692;23.342;2023-04-30T04:16:20;95044.13;;;11.36;64.77
52957;BME280;38819;42.692;23.342;2023-04-30T04:18:46;95040.31;;;11.37;64.90
52957;BME280;38819;42.692;23.342;2023-04-30T04:21:11;95039.63;;;11.31;64.97
52957;BME280;38819;42.692;23.342;2023-04-30T04:23:37;95046.72;;;11.41;64.71
52957;BME280;38819;42.692;23.342;2023-04-30T04:26:02;95045.13;;;11.40;64.85
52957;BME280;38819;42.692;23.342;2023-04-30T04:28:28;95045.50;;;11.47;64.59
52957;BME280;38819;42.692;23.342;2023-04-30T04:30:54;95041.50;;;11.59;64.33
52957;BME280;38819;42.692;23.342;2023-04-30T04:33:19;95043.78;;;11.65;64.34
52957;BME280;38819;42.692;23.342;2023-04-30T04:35:45;95048.28;;;11.70;63.80
52957;BME280;38819;42.692;23.342;2023-04-30T04:38:11;95048.97;;;11.76;63.91
52957;BME280;38819;42.692;23.342;2023-04-30T04:40:37;95052.09;;;11.83;63.36
52957;BME280;38819;42.692;23.342;2023-04-30T04:43:02;95054.56;;;11.79;63.52
52957;BME280;38819;42.692;23.342;2023-04-30T04:45:28;95050.97;;;11.84;63.51
52957;BME280;38819;42.692;23.342;2023-04-30T04:47:53;95057.69;;;11.86;63.51
52957;BME280;38819;42.692;23.342;2023-04-30T04:50:18;95048.44;;;11.87;63.06
52957;BME280;38819;42.692;23.342;2023-04-30T04:52:44;95052.56;;;11.99;63.21
52957;BME280;38819;42.692;23.342;2023-04-30T04:55:09;95053.69;;;11.98;63.40
52957;BME280;38819;42.692;23.342;2023-04-30T04:57:36;95054.22;;;12.09;63.48
52957;BME280;38819;42.692;23.342;2023-04-30T05:00:02;95064.53;;;12.20;63.32
52957;BME280;38819;42.692;23.342;2023-04-30T05:02:30;95067.41;;;12.24;62.76
52957;BME280;38819;42.692;23.342;2023-04-30T05:04:55;95069.81;;;12.03;63.13
52957;BME280;38819;42.692;23.342;2023-04-30T05:07:21;95068.97;;;12.02;62.88
52957;BME280;38819;42.692;23.342;2023-04-30T05:09:46;95067.69;;;12.00;62.91
52957;BME280;38819;42.692;23.342;2023-04-30T05:12:12;95066.38;;;12.11;62.71
52957;BME280;38819;42.692;23.342;2023-04-30T05:14:38;95068.69;;;12.04;62.75
52957;BME280;38819;42.692;23.342;2023-04-30T05:17:04;95074.91;;;12.04;62.99
52957;BME280;38819;42.692;23.342;2023-04-30T05:19:30;95066.28;;;12.02;63.26
52957;BME280;38819;42.692;23.342;2023-04-30T05:21:55;95069.81;;;12.03;63.09
52957;BME280;38819;42.692;23.342;2023-04-30T05:24:21;95062.00;;;12.01;63.28
52957;BME280;38819;42.692;23.342;2023-04-30T05:26:46;95061.81;;;11.98;63.18
52957;BME280;38819;42.692;23.342;2023-04-30T05:29:11;95063.09;;;12.00;63.11
52957;BME280;38819;42.692;23.342;2023-04-30T05:31:37;95063.84;;;12.15;62.92
52957;BME280;38819;42.692;23.342;2023-04-30T05:34:02;95067.16;;;12.12;62.65
52957;BME280;38819;42.692;23.342;2023-04-30T05:36:28;95065.75;;;12.14;62.86
52957;BME280;38819;42.692;23.342;2023-04-30T05:38:53;95077.94;;;12.26;62.48
52957;BME280;38819;42.692;23.342;2023-04-30T05:41:20;95072.66;;;12.20;62.45
52957;BME280;38819;42.692;23.342;2023-04-30T05:43:45;95069.63;;;12.22;62.34
52957;BME280;38819;42.692;23.342;2023-04-30T05:46:11;95067.91;;;12.26;62.34
52957;BME280;38819;42.692;23.342;2023-04-30T05:48:37;95066.94;;;12.22;62.57
52957;BME280;38819;42.692;23.342;2023-04-30T05:51:03;95066.19;;;12.30;62.36
52957;BME280;38819;42.692;23.342;2023-04-30T05:53:30;95063.19;;;12.32;62.49
52957;BME280;38819;42.692;23.342;2023-04-30T05:55:56;95070.06;;;12.15;62.84
52957;BME280;38819;42.692;23.342;2023-04-30T05:58:21;95074.25;;;12.21;62.78
52957;BME280;38819;42.692;23.342;2023-04-30T06:00:50;95075.16;;;12.17;63.02
52957;BME280;38819;42.692;23.342;2023-04-30T06:03:17;95078.06;;;12.20;63.24
52957;BME280;38819;42.692;23.342;2023-04-30T06:05:43;95078.72;;;12.26;63.79
52957;BME280;38819;42.692;23.342;2023-04-30T06:08:09;95074.38;;;12.16;64.17
52957;BME280;38819;42.692;23.342;2023-04-30T06:10:34;95074.50;;;12.11;64.97
52957;BME280;38819;42.692;23.342;2023-04-30T06:13:00;95088.09;;;12.20;64.71
52957;BME280;38819;42.692;23.342;2023-04-30T06:15:25;95082.88;;;12.23;64.84
52957;BME280;38819;42.692;23.342;2023-04-30T06:17:51;95087.88;;;12.30;64.84
52957;BME280;38819;42.692;23.342;2023-04-30T06:20:17;95088.84;;;12.34;64.58
52957;BME280;38819;42.692;23.342;2023-04-30T06:22:42;95088.09;;;12.42;64.25
52957;BME280;38819;42.692;23.342;2023-04-30T06:25:08;95083.31;;;12.39;64.51
52957;BME280;38819;42.692;23.342;2023-04-30T06:27:33;95082.13;;;12.54;64.14
52957;BME280;38819;42.692;23.342;2023-04-30T06:29:59;95086.34;;;12.60;63.59
52957;BME280;38819;42.692;23.342;2023-04-30T06:32:25;95089.41;;;12.45;64.07
52957;BME280;38819;42.692;23.342;2023-04-30T06:34:51;95091.44;;;12.39;63.72
52957;BME280;38819;42.692;23.342;2023-04-30T06:37:16;95093.16;;;12.35;64.08
52957;BME280;38819;42.692;23.342;2023-04-30T06:39:43;95094.97;;;12.26;64.32
52957;BME280;38819;42.692;23.342;2023-04-30T06:42:08;95090.09;;;12.28;64.84
52957;BME280;38819;42.692;23.342;2023-04-30T06:44:33;95085.09;;;12.44;64.35
52957;BME280;38819;42.692;23.342;2023-04-30T06:46:59;95092.22;;;12.63;63.88
52957;BME280;38819;42.692;23.342;2023-04-30T06:49:24;95094.91;;;12.76;63.54
52957;BME280;38819;42.692;23.342;2023-04-30T06:51:50;95091.44;;;12.85;63.21
52957;BME280;38819;42.692;23.342;2023-04-30T06:54:15;95087.72;;;12.81;62.98
52957;BME280;38819;42.692;23.342;2023-04-30T06:56:41;95089.31;;;13.04;62.61
52957;BME280;38819;42.692;23.342;2023-04-30T06:59:07;95085.84;;;13.12;62.92
52957;BME280;38819;42.692;23.342;2023-04-30T07:01:33;95093.69;;;13.23;62.23
52957;BME280;38819;42.692;23.342;2023-04-30T07:03:58;95082.28;;;13.34;61.52
52957;BME280;38819;42.692;23.342;2023-04-30T07:06:24;95084.09;;;13.48;61.32
52957;BME280;38819;42.692;23.342;2023-04-30T07:08:50;95083.84;;;13.67;60.92
52957;BME280;38819;42.692;23.342;2023-04-30T07:11:15;95095.16;;;13.60;60.24
52957;BME280;38819;42.692;23.342;2023-04-30T07:13:41;95089.75;;;13.60;59.88
52957;BME280;38819;42.692;23.342;2023-04-30T07:16:06;95096.78;;;13.70;60.03
52957;BME280;38819;42.692;23.342;2023-04-30T07:18:33;95093.47;;;13.82;59.17
52957;BME280;38819;42.692;23.342;2023-04-30T07:20:59;95101.16;;;13.97;58.76
52957;BME280;38819;42.692;23.342;2023-04-30T07:23:25;95094.94;;;14.05;57.92
52957;BME280;38819;42.692;23.342;2023-04-30T07:25:50;95092.25;;;14.14;57.63
52957;BME280;38819;42.692;23.342;2023-04-30T07:28:16;95098.81;;;14.22;57.49
52957;BME280;38819;42.692;23.342;2023-04-30T07:30:41;95084.44;;;14.30;57.39
52957;BME280;38819;42.692;23.342;2023-04-30T07:33:06;95094.03;;;14.45;56.88
52957;BME280;38819;42.692;23.342;2023-04-30T07:35:33;95093.53;;;14.52;56.52
52957;BME280;38819;42.692;23.342;2023-04-30T07:37:59;95091.63;;;14.43;56.56
52957;BME280;38819;42.692;23.342;2023-04-30T07:40:24;95101.19;;;14.41;56.80
52957;BME280;38819;42.692;23.342;2023-04-30T07:42:50;95098.69;;;14.62;56.58
52957;BME280;38819;42.692;23.342;2023-04-30T07:45:15;95091.44;;;14.57;56.45
52957;BME280;38819;42.692;23.342;2023-04-30T07:47:41;95099.00;;;14.60;56.31
52957;BME280;38819;42.692;23.342;2023-04-30T07:50:07;95094.03;;;14.71;56.06
52957;BME280;38819;42.692;23.342;2023-04-30T07:52:32;95097.53;;;14.80;55.32
52957;BME280;38819;42.692;23.342;2023-04-30T07:54:58;95100.22;;;14.98;54.67
52957;BME280;38819;42.692;23.342;2023-04-30T07:57:23;95097.00;;;15.05;54.64
52957;BME280;38819;42.692;23.342;2023-04-30T07:59:52;95094.91;;;15.19;54.45
52957;BME280;38819;42.692;23.342;2023-04-30T08:02:17;95091.81;;;15.29;54.28
52957;BME280;38819;42.692;23.342;2023-04-30T08:04:43;95090.19;;;15.37;53.26
52957;BME280;38819;42.692;23.342;2023-04-30T08:07:08;95089.50;;;15.49;53.06
52957;BME280;38819;42.692;23.342;2023-04-30T08:09:34;95093.78;;;15.59;53.10
52957;BME280;38819;42.692;23.342;2023-04-30T08:11:59;95099.41;;;15.53;52.29
52957;BME280;38819;42.692;23.342;2023-04-30T08:14:26;95103.25;;;15.52;52.07
52957;BME280;38819;42.692;23.342;2023-04-30T08:16:51;95102.75;;;15.59;52.38
52957;BME280;38819;42.692;23.342;2023-04-30T08:19:16;95107.69;;;15.66;52.36
52957;BME280;38819;42.692;23.342;2023-04-30T08:21:42;95109.25;;;15.67;52.12
52957;BME280;38819;42.692;23.342;2023-04-30T08:24:07;95102.56;;;15.64;51.86
52957;BME280;38819;42.692;23.342;2023-04-30T08:26:33;95103.88;;;15.58;52.34
52957;BME280;38819;42.692;23.342;2023-04-30T08:28:58;95101.16;;;15.58;52.21
52957;BME280;38819;42.692;23.342;2023-04-30T08:31:24;95104.19;;;15.56;52.71
52957;BME280;38819;42.692;23.342;2023-04-30T08:33:49;95101.97;;;15.59;52.85
52957;BME280;38819;42.692;23.342;2023-04-30T08:36:15;95095.50;;;15.63;53.12
52957;BME280;38819;42.692;23.342;2023-04-30T08:38:40;95096.16;;;15.69;52.22
52957;BME280;38819;42.692;23.342;2023-04-30T08:41:11;95095.00;;;15.79;52.20
52957;BME280;38819;42.692;23.342;2023-04-30T08:43:38;95102.03;;;15.80;52.26
52957;BME280;38819;42.692;23.342;2023-04-30T08:46:06;95099.59;;;15.87;51.63
52957;BME280;38819;42.692;23.342;2023-04-30T08:48:32;95101.97;;;15.88;51.65
52957;BME280;38819;42.692;23.342;2023-04-30T08:51:02;95107.63;;;15.83;51.45
52957;BME280;38819;42.692;23.342;2023-04-30T08:53:34;95092.03;;;15.92;50.66
52957;BME280;38819;42.692;23.342;2023-04-30T08:56:00;95090.63;;;15.86;51.05
52957;BME280;38819;42.692;23.342;2023-04-30T08:58:25;95083.69;;;15.98;50.67
52957;BME280;38819;42.692;23.342;2023-04-30T09:00:50;95083.28;;;16.08;50.78
52957;BME280;38819;42.692;23.342;2023-04-30T09:03:16;95072.06;;;16.09;50.94
52957;BME280;38819;42.692;23.342;2023-04-30T09:05:41;95069.88;;;16.24;50.27
52957;BME280;38819;42.692;23.342;2023-04-30T09:08:07;95071.06;;;16.35;50.13
52957;BME280;38819;42.692;23.342;2023-04-30T09:10:34;95061.84;;;16.27;49.87
52957;BME280;38819;42.692;23.342;2023-04-30T09:15:32;95066.88;;;16.38;48.70
52957;BME280;38819;42.692;23.342;2023-04-30T09:20:36;95057.50;;;16.47;48.73
52957;BME280;38819;42.692;23.342;2023-04-30T09:23:07;95047.72;;;16.67;47.86
52957;BME280;38819;42.692;23.342;2023-04-30T09:25:42;95052.75;;;16.78;47.88
52957;BME280;38819;42.692;23.342;2023-04-30T09:30:34;95038.78;;;16.79;48.00
52957;BME280;38819;42.692;23.342;2023-04-30T09:33:01;95037.25;;;16.91;47.01
52957;BME280;38819;42.692;23.342;2023-04-30T09:35:31;95032.81;;;16.98;47.00
52957;BME280;38819;42.692;23.342;2023-04-30T09:38:00;95036.94;;;17.04;47.39
52957;BME280;38819;42.692;23.342;2023-04-30T09:40:40;95025.56;;;17.15;46.86
52957;BME280;38819;42.692;23.342;2023-04-30T09:43:06;95032.75;;;17.19;47.14
52957;BME280;38819;42.692;23.342;2023-04-30T09:45:47;95032.53;;;17.25;46.74
52957;BME280;38819;42.692;23.342;2023-04-30T09:48:21;95034.97;;;17.05;46.48
52957;BME280;38819;42.692;23.342;2023-04-30T09:50:48;95026.56;;;16.98;46.80
52957;BME280;38819;42.692;23.342;2023-04-30T09:53:14;95027.34;;;16.86;46.84
52957;BME280;38819;42.692;23.342;2023-04-30T09:55:43;95021.06;;;16.85;47.20
52957;BME280;38819;42.692;23.342;2023-04-30T09:58:10;95016.44;;;16.86;47.49
52957;BME280;38819;42.692;23.342;2023-04-30T10:00:36;95019.69;;;16.79;47.72
52957;BME280;38819;42.692;23.342;2023-04-30T10:03:07;95018.28;;;16.94;47.67
52957;BME280;38819;42.692;23.342;2023-04-30T10:05:37;95018.38;;;16.98;46.92
52957;BME280;38819;42.692;23.342;2023-04-30T10:08:22;95007.25;;;17.15;46.20
52957;BME280;38819;42.692;23.342;2023-04-30T10:11:02;95005.69;;;17.27;46.40
52957;BME280;38819;42.692;23.342;2023-04-30T10:13:31;95017.03;;;17.29;46.52
52957;BME280;38819;42.692;23.342;2023-04-30T10:16:07;95007.50;;;17.35;46.32
52957;BME280;38819;42.692;23.342;2023-04-30T10:18:41;95005.13;;;17.33;46.77
52957;BME280;38819;42.692;23.342;2023-04-30T10:21:08;95013.97;;;17.30;46.34
52957;BME280;38819;42.692;23.342;2023-04-30T10:23:37;95025.47;;;17.23;46.51
52957;BME280;38819;42.692;23.342;2023-04-30T10:26:10;95040.44;;;17.05;46.94
52957;BME280;38819;42.692;23.342;2023-04-30T10:28:37;95041.44;;;16.88;48.20
52957;BME280;38819;42.692;23.342;2023-04-30T10:31:04;95055.81;;;16.76;49.69
52957;BME280;38819;42.692;23.342;2023-04-30T10:36:21;95066.47;;;16.27;53.42
52957;BME280;38819;42.692;23.342;2023-04-30T10:38:48;95073.19;;;16.08;56.19
52957;BME280;38819;42.692;23.342;2023-04-30T10:41:14;95079.78;;;16.07;55.65
52957;BME280;38819;42.692;23.342;2023-04-30T10:43:39;95067.53;;;15.92;55.14
52957;BME280;38819;42.692;23.342;2023-04-30T10:46:07;95055.69;;;15.88;56.16
52957;BME280;38819;42.692;23.342;2023-04-30T10:48:33;95047.94;;;15.99;57.84
52957;BME280;38819;42.692;23.342;2023-04-30T10:50:59;95050.66;;;16.20;56.89
52957;BME280;38819;42.692;23.342;2023-04-30T10:53:29;95044.41;;;16.41;59.90
52957;BME280;38819;42.692;23.342;2023-04-30T10:56:04;95047.44;;;16.60;58.70
52957;BME280;38819;42.692;23.342;2023-04-30T10:58:39;95046.00;;;16.75;57.72
52957;BME280;38819;42.692;23.342;2023-04-30T11:01:13;95032.50;;;16.79;52.72
52957;BME280;38819;42.692;23.342;2023-04-30T11:03:41;95039.69;;;16.83;52.93
52957;BME280;38819;42.692;23.342;2023-04-30T11:06:16;95036.88;;;16.92;52.38
52957;BME280;38819;42.692;23.342;2023-04-30T11:08:45;95030.19;;;17.02;52.17
52957;BME280;38819;42.692;23.342;2023-04-30T11:11:17;95032.28;;;17.17;53.05
52957;BME280;38819;42.692;23.342;2023-04-30T11:13:47;95038.88;;;17.16;52.21
52957;BME280;38819;42.692;23.342;2023-04-30T11:16:28;95032.41;;;17.33;52.62
52957;BME280;38819;42.692;23.342;2023-04-30T11:18:53;95035.03;;;17.30;50.62
52957;BME280;38819;42.692;23.342;2023-04-30T11:21:19;95035.13;;;17.21;51.64
52957;BME280;38819;42.692;23.342;2023-04-30T11:23:48;95030.56;;;17.13;48.05
52957;BME280;38819;42.692;23.342;2023-04-30T11:26:13;95033.59;;;16.99;46.12
52957;BME280;38819;42.692;23.342;2023-04-30T11:28:49;95030.81;;;17.08;47.36
52957;BME280;38819;42.692;23.342;2023-04-30T11:31:16;95024.75;;;17.02;48.49
52957;BME280;38819;42.692;23.342;2023-04-30T11:33:42;95035.38;;;16.82;49.97
52957;BME280;38819;42.692;23.342;2023-04-30T11:36:07;95040.84;;;16.61;52.06
52957;BME280;38819;42.692;23.342;2023-04-30T11:38:34;95030.84;;;16.32;54.35
52957;BME280;38819;42.692;23.342;2023-04-30T11:41:01;95025.34;;;16.20;56.71
52957;BME280;38819;42.692;23.342;2023-04-30T11:43:31;95029.72;;;16.12;56.23
52957;BME280;38819;42.692;23.342;2023-04-30T11:46:17;95026.00;;;16.17;56.95
52957;BME280;38819;42.692;23.342;2023-04-30T11:48:44;95035.00;;;16.17;58.38
52957;BME280;38819;42.692;23.342;2023-04-30T11:51:20;95036.22;;;15.99;59.03
52957;BME280;38819;42.692;23.342;2023-04-30T11:53:48;95035.09;;;16.00;59.27
52957;BME280;38819;42.692;23.342;2023-04-30T11:56:20;95034.56;;;16.06;59.70
52957;BME280;38819;42.692;23.342;2023-04-30T11:58:47;95027.34;;;16.10;59.53
52957;BME280;38819;42.692;23.342;2023-04-30T12:01:13;95019.44;;;16.18;58.04
52957;BME280;38819;42.692;23.342;2023-04-30T12:03:44;95015.56;;;16.19;57.01
52957;BME280;38819;42.692;23.342;2023-04-30T12:06:21;95019.19;;;16.10;56.40
52957;BME280;38819;42.692;23.342;2023-04-30T12:08:47;95019.31;;;16.14;57.05
52957;BME280;38819;42.692;23.342;2023-04-30T12:11:23;95018.81;;;16.12;55.78
52957;BME280;38819;42.692;23.342;2023-04-30T12:14:10;95021.28;;;16.26;55.70
52957;BME280;38819;42.692;23.342;2023-04-30T12:16:47;95031.13;;;16.18;55.86
52957;BME280;38819;42.692;23.342;2023-04-30T12:19:20;95050.06;;;16.15;56.46
52957;BME280;38819;42.692;23.342;2023-04-30T12:21:47;95057.66;;;16.09;58.28
52957;BME280;38819;42.692;23.342;2023-04-30T12:24:14;95047.81;;;15.96;58.35
52957;BME280;38819;42.692;23.342;2023-04-30T12:26:41;95050.03;;;15.93;60.05
52957;BME280;38819;42.692;23.342;2023-04-30T12:29:13;95049.00;;;15.86;62.21
52957;BME280;38819;42.692;23.342;2023-04-30T12:31:38;95046.06;;;15.91;63.11
52957;BME280;38819;42.692;23.342;2023-04-30T12:34:05;95045.09;;;15.96;64.39
52957;BME280;38819;42.692;23.342;2023-04-30T12:36:32;95056.31;;;15.94;62.95
52957;BME280;38819;42.692;23.342;2023-04-30T12:39:16;95045.88;;;15.96;62.65
52957;BME280;38819;42.692;23.342;2023-04-30T12:41:43;95043.47;;;15.95;60.30
52957;BME280;38819;42.692;23.342;2023-04-30T12:44:22;95044.03;;;16.09;61.10
52957;BME280;38819;42.692;23.342;2023-04-30T12:46:50;95050.13;;;16.27;60.61
52957;BME280;38819;42.692;23.342;2023-04-30T12:49:32;95039.63;;;16.38;61.33
52957;BME280;38819;42.692;23.342;2023-04-30T12:52:05;95036.50;;;16.48;60.20
52957;BME280;38819;42.692;23.342;2023-04-30T12:54:33;95040.06;;;16.61;60.17
52957;BME280;38819;42.692;23.342;2023-04-30T12:59:26;95033.31;;;16.79;59.85
52957;BME280;38819;42.692;23.342;2023-04-30T13:01:52;95037.72;;;17.05;58.75
52957;BME280;38819;42.692;23.342;2023-04-30T13:04:19;95035.69;;;17.14;57.92
52957;BME280;38819;42.692;23.342;2023-04-30T13:06:45;95035.47;;;17.19;57.31
52957;BME280;38819;42.692;23.342;2023-04-30T13:09:10;95030.94;;;17.36;56.13
52957;BME280;38819;42.692;23.342;2023-04-30T13:11:36;95033.56;;;17.45;55.53
52957;BME280;38819;42.692;23.342;2023-04-30T13:14:02;95021.41;;;17.54;56.45
52957;BME280;38819;42.692;23.342;2023-04-30T13:16:28;95004.66;;;17.56;56.79
52957;BME280;38819;42.692;23.342;2023-04-30T13:18:55;95010.00;;;17.65;55.72
52957;BME280;38819;42.692;23.342;2023-04-30T13:21:21;95006.13;;;17.66;55.00
52957;BME280;38819;42.692;23.342;2023-04-30T13:23:47;95002.94;;;17.64;56.00